createdAt,value
2019-03-10T00:05:00.176Z,99.90
2019-03-10T00:11:31.758Z,99.90
2019-03-10T00:18:02.265Z,99.90
2019-03-10T00:24:32.968Z,99.90
2019-03-10T00:31:04.738Z,99.90
2019-03-10T00:37:35.879Z,99.90
2019-03-10T00:44:43.395Z,99.90
2019-03-10T00:51:40.248Z,99.90
2019-03-10T00:58:11.466Z,99.90
2019-03-10T01:01:35.757Z,99.90
2019-03-10T01:08:07.103Z,99.90
2019-03-10T01:10:37.199Z,99.90
2019-03-10T01:17:09.053Z,99.90
2019-03-10T01:23:39.873Z,99.90
2019-03-10T01:27:04.083Z,99.90
2019-03-10T01:33:41.112Z,99.90
2019-03-10T01:37:05.786Z,99.90
2019-03-10T01:43:36.542Z,99.90
2019-03-10T01:50:10.692Z,99.90
2019-03-10T01:56:41.731Z,99.90
2019-03-10T02:00:05.819Z,99.90
2019-03-10T02:06:36.956Z,99.90
2019-03-10T02:13:08.014Z,99.90
2019-03-10T02:19:38.867Z,99.90
2019-03-10T02:26:09.378Z,99.90
2019-03-10T02:29:33.664Z,99.90
2019-03-10T02:36:04.523Z,99.90
2019-03-10T02:39:28.686Z,99.90
2019-03-10T02:45:58.971Z,99.90
2019-03-10T02:52:29.812Z,99.90
2019-03-10T02:55:54.408Z,99.90
2019-03-10T03:02:25.361Z,99.90
2019-03-10T03:05:49.954Z,99.90
2019-03-10T03:12:20.872Z,99.90
2019-03-10T03:14:50.843Z,99.90
2019-03-10T03:21:21.740Z,99.90
2019-03-10T03:24:46.193Z,99.90
2019-03-10T03:31:16.911Z,99.90
2019-03-10T03:34:41.280Z,99.90
2019-03-10T03:41:16.936Z,99.90
2019-03-10T03:47:48.261Z,99.90
2019-03-10T03:51:12.856Z,99.90
2019-03-10T03:57:43.859Z,99.90
2019-03-10T04:01:08.439Z,99.90
2019-03-10T04:07:39.415Z,99.90
2019-03-10T04:14:10.309Z,99.90
2019-03-10T04:20:40.778Z,99.90
2019-03-10T04:27:11.811Z,99.90
2019-03-10T04:33:43.158Z,99.90
2019-03-10T04:36:33.792Z,99.90
2019-03-10T04:43:04.332Z,99.90
2019-03-10T04:49:35.291Z,99.90
2019-03-10T04:56:13.446Z,99.90
2019-03-10T05:02:44.494Z,99.90
2019-03-10T05:09:15.090Z,99.90
2019-03-10T05:12:39.822Z,99.90
2019-03-10T05:15:09.785Z,99.90
2019-03-10T05:21:40.642Z,99.90
2019-03-10T05:28:11.377Z,99.90
2019-03-10T05:31:09.591Z,99.90
2019-03-10T05:37:39.793Z,99.90
2019-03-10T05:44:09.688Z,99.90
2019-03-10T05:50:39.510Z,99.90
2019-03-10T05:54:04.172Z,99.90
2019-03-10T06:00:42.127Z,99.90
2019-03-10T06:04:00.025Z,99.90
2019-03-10T06:10:30.127Z,99.90
2019-03-10T06:13:55.960Z,99.90
2019-03-10T06:16:25.814Z,99.90
2019-03-10T06:22:56.487Z,99.90
2019-03-10T06:25:41.906Z,99.90
2019-03-10T06:36:12.496Z,99.90
2019-03-10T06:42:42.840Z,99.90
2019-03-10T06:49:13.146Z,99.90
2019-03-10T06:51:55.819Z,99.90
2019-03-10T07:02:26.132Z,99.90
2019-03-10T07:08:56.225Z,99.90
2019-03-10T07:12:20.119Z,99.90
2019-03-10T07:18:49.751Z,99.90
2019-03-10T07:29:24.999Z,99.90
2019-03-10T07:32:49.807Z,99.90
2019-03-10T07:39:34.524Z,99.90
2019-03-10T07:42:14.842Z,99.90
2019-03-10T07:48:49.717Z,99.90
2019-03-10T07:55:33.838Z,99.90
2019-03-10T08:02:23.003Z,99.90
2019-03-10T08:05:47.202Z,99.90
2019-03-10T08:12:19.552Z,99.90
2019-03-10T08:19:00.730Z,99.90
2019-03-10T08:25:49.734Z,99.90
2019-03-10T08:29:14.486Z,99.90
2019-03-10T08:36:03.467Z,99.90
2019-03-10T08:42:44.659Z,99.90
2019-03-10T08:46:09.273Z,99.90
2019-03-10T08:52:41.618Z,99.90
2019-03-10T08:59:14.127Z,99.90
2019-03-10T09:02:38.491Z,99.90
2019-03-10T09:09:13.670Z,99.90
2019-03-10T09:15:52.336Z,99.90
2019-03-10T09:18:31.305Z,99.90
2019-03-10T09:21:02.800Z,99.90
2019-03-10T09:27:50.369Z,99.90
2019-03-10T09:31:14.720Z,99.90
2019-03-10T09:37:55.012Z,99.90
2019-03-10T09:44:35.354Z,99.90
2019-03-10T09:47:59.795Z,99.90
2019-03-10T09:54:48.044Z,99.90
2019-03-10T09:58:12.063Z,99.90
2019-03-10T10:04:44.184Z,99.90
2019-03-10T10:11:16.422Z,99.90
2019-03-10T10:14:41.130Z,99.90
2019-03-10T10:21:25.318Z,99.90
2019-03-10T10:28:00.635Z,99.90
2019-03-10T10:31:06.659Z,99.90
2019-03-10T10:37:41.209Z,99.90
2019-03-10T10:40:28.787Z,99.90
2019-03-10T10:43:52.955Z,99.90
2019-03-10T10:54:25.280Z,99.90
2019-03-10T11:00:59.275Z,99.90
2019-03-10T11:07:47.840Z,99.90
2019-03-10T11:11:12.527Z,99.90
2019-03-10T11:17:50.652Z,99.90
2019-03-10T11:24:38.056Z,99.90
2019-03-10T11:31:26.917Z,99.90
2019-03-10T11:34:51.427Z,99.90
2019-03-10T11:41:33.404Z,98.40
2019-03-10T11:48:09.432Z,98.80
2019-03-10T11:51:15.609Z,99.90
2019-03-10T11:57:59.509Z,99.90
2019-03-10T12:04:31.777Z,99.90
2019-03-10T12:11:02.493Z,99.90
2019-03-10T12:14:08.696Z,99.90
2019-03-10T12:20:39.534Z,99.90
2019-03-10T12:27:10.310Z,99.90
2019-03-10T12:30:34.523Z,99.90
2019-03-10T12:37:05.113Z,99.90
2019-03-10T12:40:29.779Z,99.90
2019-03-10T12:47:00.280Z,99.90
2019-03-10T12:50:24.720Z,99.90
2019-03-10T12:56:56.052Z,99.90
2019-03-10T13:00:20.642Z,99.90
2019-03-10T13:06:51.682Z,99.90
2019-03-10T13:10:16.495Z,99.90
2019-03-10T13:16:47.630Z,99.90
2019-03-10T13:23:18.584Z,99.90
2019-03-10T13:29:49.238Z,99.90
2019-03-10T13:36:19.613Z,99.90
2019-03-10T13:42:50.682Z,99.90
2019-03-10T13:49:21.513Z,99.90
2019-03-10T13:55:52.442Z,99.90
2019-03-10T14:02:23.136Z,99.90
2019-03-10T14:05:47.572Z,99.90
2019-03-10T14:12:17.739Z,99.90
2019-03-10T14:18:48.364Z,99.60
2019-03-10T14:25:19.100Z,98.00
2019-03-10T14:31:49.874Z,97.00
2019-03-10T14:38:20.800Z,98.20
2019-03-10T14:41:41.422Z,99.60
2019-03-10T14:52:12.025Z,99.80
2019-03-10T14:58:42.746Z,99.90
2019-03-10T15:05:13.005Z,99.90
2019-03-10T15:11:43.160Z,99.90
2019-03-10T15:18:13.644Z,99.90
2019-03-10T15:21:38.281Z,99.90
2019-03-10T15:28:09.189Z,99.90
2019-03-10T15:31:01.572Z,99.90
2019-03-10T15:33:31.496Z,99.90
2019-03-10T15:40:01.570Z,99.90
2019-03-10T15:46:31.850Z,99.90
2019-03-10T15:53:01.952Z,99.90
2019-03-10T15:59:31.918Z,99.90
2019-03-10T16:06:02.291Z,99.90
2019-03-10T16:12:32.880Z,99.90
2019-03-10T16:15:57.464Z,99.90
2019-03-10T16:22:28.727Z,99.90
2019-03-10T16:25:53.325Z,99.90
2019-03-10T16:32:24.622Z,99.90
2019-03-10T16:38:55.379Z,99.90
2019-03-10T16:42:19.544Z,99.90
2019-03-10T16:48:50.598Z,99.90
2019-03-10T16:52:14.942Z,99.90
2019-03-10T16:58:45.648Z,99.90
2019-03-10T17:05:20.674Z,99.90
2019-03-10T17:11:51.462Z,99.90
2019-03-10T17:18:21.956Z,99.90
2019-03-10T17:21:46.508Z,99.90
2019-03-10T17:28:17.234Z,99.90
2019-03-10T17:34:47.824Z,99.90
2019-03-10T17:41:18.170Z,99.90
2019-03-10T17:47:48.734Z,99.90
2019-03-10T17:51:13.238Z,99.90
2019-03-10T17:57:44.595Z,99.90
2019-03-10T18:01:09.251Z,99.90
2019-03-10T18:07:40.225Z,99.90
2019-03-10T18:14:11.781Z,99.90
2019-03-10T18:17:18.039Z,99.90
2019-03-10T18:23:49.065Z,99.90
2019-03-10T18:30:21.909Z,99.90
2019-03-10T18:36:52.668Z,99.90
2019-03-10T18:43:25.119Z,99.90
2019-03-10T18:46:48.833Z,99.90
2019-03-10T18:53:19.736Z,99.90
2019-03-10T18:59:50.759Z,99.90
2019-03-10T19:03:15.287Z,99.90
2019-03-10T19:09:46.318Z,99.90
2019-03-10T19:13:10.649Z,99.90
2019-03-10T19:19:41.308Z,99.90
2019-03-10T19:23:05.941Z,99.90
2019-03-10T19:29:36.732Z,99.90
2019-03-10T19:33:01.425Z,99.90
2019-03-10T19:39:31.949Z,99.90
2019-03-10T19:46:02.591Z,99.90
2019-03-10T19:52:33.048Z,99.90
2019-03-10T19:59:03.933Z,99.90
2019-03-10T20:02:28.601Z,99.90
2019-03-10T20:09:01.347Z,99.90
2019-03-10T20:12:26.065Z,99.90
2019-03-10T20:18:56.647Z,99.90
2019-03-10T20:22:20.790Z,99.90
2019-03-10T20:28:51.600Z,99.90
2019-03-10T20:32:15.916Z,99.90
2019-03-10T20:38:46.778Z,99.90
2019-03-10T20:41:16.751Z,99.90
2019-03-10T20:47:47.298Z,99.90
2019-03-10T20:54:18.055Z,99.90
2019-03-10T21:00:49.352Z,99.90
2019-03-10T21:07:20.289Z,99.90
2019-03-10T21:13:50.570Z,99.90
2019-03-10T21:20:24.996Z,99.90
2019-03-10T21:23:49.522Z,99.90
2019-03-10T21:30:26.247Z,99.90
2019-03-10T21:33:50.565Z,99.90
2019-03-10T21:40:30.219Z,99.90
2019-03-10T21:47:01.274Z,99.90
2019-03-10T21:50:25.861Z,99.90
2019-03-10T21:56:56.171Z,99.90
2019-03-10T22:00:20.878Z,99.90
2019-03-10T22:06:51.359Z,99.90
2019-03-10T22:10:26.367Z,99.90
2019-03-10T22:16:48.493Z,99.90
2019-03-10T22:20:13.195Z,99.90
2019-03-10T22:26:43.594Z,99.20
2019-03-10T22:29:39.478Z,98.50
2019-03-10T22:36:09.336Z,98.40
2019-03-10T22:39:33.139Z,98.10
2019-03-10T22:42:02.880Z,96.60
2019-03-10T22:48:32.865Z,96.30
2019-03-10T22:55:03.699Z,96.30
2019-03-10T23:01:34.049Z,97.50
2019-03-10T23:04:58.599Z,96.00
2019-03-10T23:11:28.817Z,97.40
2019-03-10T23:14:53.498Z,97.40
2019-03-10T23:21:24.051Z,97.40
2019-03-10T23:24:48.557Z,97.90
2019-03-10T23:31:19.655Z,96.50
2019-03-10T23:34:44.329Z,96.00
2019-03-10T23:41:14.822Z,97.20
2019-03-10T23:47:45.730Z,96.80
2019-03-10T23:51:10.258Z,96.00
2019-03-10T23:57:40.810Z,95.50
